createdAt,value
2022-09-13T00:01:41.072Z,1.50
2022-09-13T00:04:08.466Z,0.98
2022-09-13T00:06:35.832Z,0.30
2022-09-13T00:09:03.721Z,0.15
2022-09-13T00:11:31.747Z,0.20
2022-09-13T00:13:59.118Z,0.40
2022-09-13T00:16:27.678Z,0.90
2022-09-13T00:18:55.067Z,0.45
2022-09-13T00:21:23.094Z,0.20
2022-09-13T00:23:51.260Z,0.20
2022-09-13T00:26:20.005Z,0.43
2022-09-13T00:28:51.545Z,0.30
2022-09-13T00:31:18.962Z,0.50
2022-09-13T00:33:46.181Z,0.17
2022-09-13T00:36:15.312Z,0.13
2022-09-13T00:38:43.491Z,0.30
2022-09-13T00:41:16.551Z,0.55
2022-09-13T00:43:49.020Z,0.13
2022-09-13T00:46:28.870Z,0.22
2022-09-13T00:49:22.036Z,0.30
2022-09-13T00:51:51.490Z,0.10
2022-09-13T00:54:20.091Z,0.00
2022-09-13T00:56:49.663Z,0.45
2022-09-13T00:59:20.905Z,0.30
2022-09-13T01:01:49.532Z,0.30
2022-09-13T01:04:19.035Z,0.22
2022-09-13T01:06:46.640Z,0.70
2022-09-13T01:09:14.014Z,1.55
2022-09-13T01:11:55.716Z,0.50
2022-09-13T01:14:23.511Z,0.63
2022-09-13T01:16:50.797Z,0.45
2022-09-13T01:19:18.082Z,0.20
2022-09-13T01:22:04.153Z,0.20
2022-09-13T01:25:10.077Z,0.20
2022-09-13T01:27:40.677Z,0.08
2022-09-13T01:30:12.839Z,0.40
2022-09-13T01:32:41.429Z,0.13
2022-09-13T01:35:16.397Z,0.15
2022-09-13T01:38:03.168Z,0.30
2022-09-13T01:40:44.509Z,0.28
2022-09-13T01:43:23.896Z,0.10
2022-09-13T01:46:03.985Z,0.10
2022-09-13T01:48:37.095Z,0.08
2022-09-13T01:51:04.383Z,0.45
2022-09-13T01:53:37.584Z,0.10
2022-09-13T01:56:06.797Z,1.10
2022-09-13T01:58:39.944Z,0.20
2022-09-13T02:01:07.319Z,0.32
2022-09-13T02:03:36.914Z,0.20
2022-09-13T02:06:07.320Z,1.45
2022-09-13T02:08:45.452Z,0.35
2022-09-13T02:11:17.325Z,0.32
2022-09-13T02:13:48.620Z,0.22
2022-09-13T02:16:48.315Z,0.17
2022-09-13T02:19:20.864Z,0.25
2022-09-13T02:21:50.708Z,0.10
2022-09-13T02:24:20.550Z,0.70
2022-09-13T02:26:48.878Z,0.20
2022-09-13T02:29:19.893Z,0.47
2022-09-13T02:31:51.003Z,0.28
2022-09-13T02:34:32.445Z,0.10
2022-09-13T02:37:00.253Z,0.10
2022-09-13T02:39:29.149Z,1.10
2022-09-13T02:41:56.440Z,0.22
2022-09-13T02:44:27.523Z,0.47
2022-09-13T02:47:13.562Z,0.20
2022-09-13T02:49:47.006Z,0.35
2022-09-13T02:52:20.536Z,0.20
2022-09-13T02:54:53.688Z,1.20
2022-09-13T02:57:26.715Z,0.20
2022-09-13T02:59:53.917Z,0.10
2022-09-13T03:02:23.429Z,0.05
2022-09-13T03:04:51.554Z,0.40
2022-09-13T03:07:18.759Z,0.70
2022-09-13T03:10:12.684Z,0.75
2022-09-13T03:12:54.879Z,0.35
2022-09-13T03:15:37.273Z,0.40
2022-09-13T03:18:07.266Z,0.35
2022-09-13T03:20:45.018Z,0.75
2022-09-13T03:23:26.973Z,0.30
2022-09-13T03:25:54.444Z,0.10
2022-09-13T03:28:30.924Z,0.40
2022-09-13T03:31:05.939Z,0.68
2022-09-13T03:33:39.911Z,0.45
2022-09-13T03:36:13.680Z,0.57
2022-09-13T03:38:45.019Z,0.30
2022-09-13T03:41:14.873Z,0.73
2022-09-13T03:43:51.798Z,0.50
2022-09-13T03:46:31.482Z,0.25
2022-09-13T03:49:01.547Z,0.10
2022-09-13T03:51:28.666Z,0.10
2022-09-13T03:53:57.944Z,0.00
2022-09-13T03:56:25.282Z,0.30
2022-09-13T03:58:52.446Z,0.55
2022-09-13T04:01:22.678Z,0.30
2022-09-13T04:03:54.526Z,0.30
2022-09-13T04:06:23.804Z,0.47
2022-09-13T04:08:50.982Z,0.10
2022-09-13T04:11:18.235Z,0.15
2022-09-13T04:13:45.453Z,0.03
2022-09-13T04:16:12.591Z,1.10
2022-09-13T04:18:39.920Z,0.30
2022-09-13T04:21:07.455Z,0.40
2022-09-13T04:23:34.596Z,0.45
2022-09-13T04:26:02.863Z,0.28
2022-09-13T04:28:30.918Z,0.40
2022-09-13T04:30:58.068Z,0.00
2022-09-13T04:33:25.393Z,0.40
2022-09-13T04:35:58.568Z,0.38
2022-09-13T04:38:26.423Z,0.10
2022-09-13T04:40:56.886Z,0.30
2022-09-13T04:43:24.814Z,0.22
2022-09-13T04:45:52.384Z,0.28
2022-09-13T04:48:19.668Z,0.10
2022-09-13T04:50:47.616Z,0.20
2022-09-13T04:53:14.893Z,0.30
2022-09-13T04:55:42.030Z,0.43
2022-09-13T04:58:09.151Z,0.38
2022-09-13T05:00:36.326Z,0.28
2022-09-13T05:03:03.540Z,0.35
2022-09-13T05:05:32.437Z,0.20
2022-09-13T05:07:59.670Z,0.20
2022-09-13T05:10:26.873Z,0.10
2022-09-13T05:12:54.176Z,0.60
2022-09-13T05:15:22.587Z,0.30
2022-09-13T05:17:49.937Z,0.43
2022-09-13T05:20:17.500Z,0.40
2022-09-13T05:22:44.762Z,0.70
2022-09-13T05:25:11.988Z,0.15
2022-09-13T05:27:39.142Z,1.40
2022-09-13T05:30:06.796Z,0.22
2022-09-13T05:32:33.951Z,0.32
2022-09-13T05:35:01.226Z,0.40
2022-09-13T05:37:28.550Z,0.00
2022-09-13T05:40:12.484Z,0.40
2022-09-13T05:42:41.362Z,0.65
2022-09-13T05:45:09.390Z,1.08
2022-09-13T05:47:36.614Z,0.57
2022-09-13T05:50:22.898Z,0.65
2022-09-13T05:52:54.306Z,0.20
2022-09-13T05:55:22.257Z,0.45
2022-09-13T05:57:50.215Z,0.63
2022-09-13T06:00:17.790Z,0.45
2022-09-13T06:02:45.471Z,0.52
2022-09-13T06:05:12.662Z,0.50
2022-09-13T06:07:43.581Z,0.45
2022-09-13T06:10:11.722Z,0.40
2022-09-13T06:12:38.876Z,0.52
2022-09-13T06:15:06.208Z,0.13
2022-09-13T06:17:33.543Z,0.63
2022-09-13T06:20:00.687Z,0.60
2022-09-13T06:22:33.150Z,0.57
2022-09-13T06:25:00.912Z,0.30
2022-09-13T06:27:29.660Z,0.63
2022-09-13T06:29:56.824Z,0.38
2022-09-13T06:32:24.255Z,0.32
2022-09-13T06:34:51.446Z,0.30
2022-09-13T06:37:18.691Z,1.25
2022-09-13T06:39:46.124Z,0.45
2022-09-13T06:42:13.408Z,0.65
2022-09-13T06:44:40.631Z,0.20
2022-09-13T06:47:08.038Z,0.32
2022-09-13T06:49:35.286Z,0.65
2022-09-13T06:52:02.562Z,0.30
2022-09-13T06:54:29.923Z,0.20
2022-09-13T06:56:57.107Z,0.30
2022-09-13T06:59:24.420Z,0.50
2022-09-13T07:01:51.836Z,0.28
2022-09-13T07:04:19.560Z,0.32
2022-09-13T07:06:47.958Z,0.77
2022-09-13T07:09:18.201Z,0.95
2022-09-13T07:11:45.762Z,1.55
2022-09-13T07:14:17.181Z,0.70
2022-09-13T07:16:46.315Z,0.50
2022-09-13T07:19:18.230Z,1.13
2022-09-13T07:21:45.469Z,0.65
2022-09-13T07:24:12.838Z,0.25
2022-09-13T07:26:40.245Z,0.88
2022-09-13T07:29:08.404Z,0.30
2022-09-13T07:31:40.080Z,0.38
2022-09-13T07:34:08.524Z,0.35
2022-09-13T07:36:36.728Z,0.20
2022-09-13T07:39:04.787Z,0.80
2022-09-13T07:41:33.369Z,0.20
2022-09-13T07:44:01.755Z,0.08
2022-09-13T07:46:32.529Z,0.30
2022-09-13T07:49:00.575Z,0.85
2022-09-13T07:51:31.759Z,0.22
2022-09-13T07:54:00.079Z,1.17
2022-09-13T07:56:28.498Z,0.35
2022-09-13T07:58:56.021Z,0.60
2022-09-13T08:01:24.828Z,2.00
2022-09-13T08:03:56.831Z,0.57
2022-09-13T08:06:24.559Z,0.20
2022-09-13T08:08:52.152Z,0.60
2022-09-13T08:11:25.720Z,0.82
2022-09-13T08:13:53.620Z,0.68
2022-09-13T08:16:21.905Z,0.90
2022-09-13T08:18:50.762Z,1.58
2022-09-13T08:21:18.118Z,0.70
2022-09-13T08:23:45.831Z,0.68
2022-09-13T08:26:13.421Z,0.88
2022-09-13T08:28:41.412Z,1.35
2022-09-13T08:31:10.354Z,0.88
2022-09-13T08:33:37.939Z,1.00
2022-09-13T08:36:05.974Z,0.43
2022-09-13T08:38:33.295Z,0.43
2022-09-13T08:41:02.772Z,0.90
2022-09-13T08:43:41.395Z,1.35
2022-09-13T08:46:24.121Z,1.23
2022-09-13T08:48:53.031Z,0.60
2022-09-13T08:51:33.873Z,0.50
2022-09-13T08:54:03.403Z,0.68
2022-09-13T08:56:46.815Z,0.43
2022-09-13T08:59:32.883Z,0.88
2022-09-13T09:02:03.343Z,0.65
2022-09-13T09:04:49.490Z,0.47
2022-09-13T09:07:19.753Z,0.38
2022-09-13T09:10:07.490Z,0.88
2022-09-13T09:12:40.342Z,0.63
2022-09-13T09:15:15.116Z,0.73
2022-09-13T09:17:55.547Z,1.08
2022-09-13T09:20:28.150Z,0.90
2022-09-13T09:22:56.119Z,0.57
2022-09-13T09:25:24.704Z,0.45
2022-09-13T09:27:52.681Z,0.22
2022-09-13T09:30:21.361Z,0.90
2022-09-13T09:32:54.959Z,0.68
2022-09-13T09:35:40.979Z,0.43
2022-09-13T09:38:15.454Z,0.50
2022-09-13T09:40:42.684Z,0.50
2022-09-13T09:43:24.347Z,0.52
2022-09-13T09:45:53.986Z,1.05
2022-09-13T09:48:25.505Z,0.85
2022-09-13T09:50:54.018Z,1.10
2022-09-13T09:53:27.152Z,0.52
2022-09-13T09:56:06.613Z,1.02
2022-09-13T09:58:41.121Z,0.85
2022-09-13T10:01:20.558Z,0.47
2022-09-13T10:03:51.914Z,0.73
2022-09-13T10:06:30.083Z,0.90
2022-09-13T10:09:02.457Z,0.75
2022-09-13T10:11:59.142Z,0.63
2022-09-13T10:14:59.060Z,0.93
2022-09-13T10:17:27.636Z,1.40
2022-09-13T10:20:18.058Z,0.40
2022-09-13T10:22:45.598Z,0.70
2022-09-13T10:25:17.593Z,0.93
2022-09-13T10:27:49.618Z,1.58
2022-09-13T10:30:29.186Z,1.05
2022-09-13T10:32:57.375Z,0.82
2022-09-13T10:35:24.854Z,0.10
2022-09-13T10:37:52.659Z,1.27
2022-09-13T10:40:22.590Z,0.40
2022-09-13T10:42:54.748Z,1.23
2022-09-13T10:45:26.260Z,1.23
2022-09-13T10:47:55.049Z,0.90
2022-09-13T10:50:31.162Z,0.55
2022-09-13T10:53:02.045Z,0.80
2022-09-13T10:55:32.228Z,0.88
2022-09-13T10:58:02.198Z,0.73
2022-09-13T11:00:36.293Z,0.80
2022-09-13T11:03:33.858Z,0.52
2022-09-13T11:06:04.090Z,0.50
2022-09-13T11:08:42.256Z,0.50
2022-09-13T11:11:09.407Z,0.98
2022-09-13T11:13:46.131Z,0.40
2022-09-13T11:16:19.499Z,0.63
2022-09-13T11:19:22.156Z,0.70
2022-09-13T11:21:52.409Z,0.95
2022-09-13T11:24:27.675Z,1.20
2022-09-13T11:26:59.181Z,0.60
2022-09-13T11:29:48.121Z,0.52
2022-09-13T11:32:18.178Z,0.35
2022-09-13T11:35:13.023Z,0.80
2022-09-13T11:37:40.199Z,0.32
2022-09-13T11:40:14.339Z,0.75
2022-09-13T11:42:47.703Z,0.75
2022-09-13T11:45:29.255Z,0.68
2022-09-13T11:48:14.827Z,0.57
2022-09-13T11:50:48.653Z,1.63
2022-09-13T11:53:21.588Z,0.10
2022-09-13T11:55:51.037Z,0.60
2022-09-13T11:58:27.470Z,0.17
2022-09-13T12:00:57.621Z,0.88
2022-09-13T12:03:43.394Z,0.50
2022-09-13T12:06:20.387Z,0.60
2022-09-13T12:08:52.020Z,0.20
2022-09-13T12:11:28.428Z,0.55
2022-09-13T12:14:01.063Z,0.93
2022-09-13T12:16:39.939Z,1.00
2022-09-13T12:19:22.452Z,0.75
2022-09-13T12:21:50.725Z,0.65
2022-09-13T12:24:38.112Z,0.38
2022-09-13T12:27:10.853Z,0.30
2022-09-13T12:29:51.285Z,0.93
2022-09-13T12:32:19.190Z,0.40
2022-09-13T12:35:08.085Z,0.17
2022-09-13T12:37:46.795Z,0.52
2022-09-13T12:40:26.987Z,0.00
2022-09-13T12:43:03.199Z,0.20
2022-09-13T12:45:34.978Z,0.85
2022-09-13T12:48:40.664Z,0.45
2022-09-13T12:51:31.134Z,0.20
2022-09-13T12:54:09.611Z,0.63
2022-09-13T12:56:57.153Z,0.22
2022-09-13T12:59:50.575Z,1.13
2022-09-13T13:02:38.286Z,0.20
2022-09-13T13:05:25.836Z,0.10
2022-09-13T13:07:55.207Z,1.17
2022-09-13T13:10:27.296Z,0.10
2022-09-13T13:12:54.605Z,0.75
2022-09-13T13:15:21.886Z,0.25
2022-09-13T13:17:49.265Z,0.40
2022-09-13T13:20:36.624Z,0.63
2022-09-13T13:23:05.420Z,0.77
2022-09-13T13:25:36.780Z,1.13
2022-09-13T13:28:04.168Z,0.40
2022-09-13T13:30:35.719Z,0.00
2022-09-13T13:33:22.517Z,0.38
2022-09-13T13:35:50.383Z,0.30
2022-09-13T13:38:32.070Z,0.47
2022-09-13T13:41:19.723Z,0.30
2022-09-13T13:43:46.954Z,0.10
2022-09-13T13:46:14.236Z,0.20
2022-09-13T13:48:42.358Z,0.75
2022-09-13T13:51:14.692Z,0.65
2022-09-13T13:53:43.851Z,0.30
2022-09-13T13:56:21.738Z,0.10
2022-09-13T13:58:55.424Z,0.00
2022-09-13T14:01:25.766Z,0.15
2022-09-13T14:04:11.610Z,0.45
2022-09-13T14:06:49.873Z,0.08
2022-09-13T14:09:30.466Z,0.40
2022-09-13T14:12:13.895Z,0.50
2022-09-13T14:14:49.481Z,0.10
2022-09-13T14:17:25.822Z,0.77
2022-09-13T14:19:55.522Z,0.00
2022-09-13T14:22:22.762Z,0.20
2022-09-13T14:24:55.949Z,0.25
2022-09-13T14:27:30.975Z,0.20
2022-09-13T14:30:17.197Z,0.10
2022-09-13T14:32:45.152Z,0.75
2022-09-13T14:35:27.506Z,0.30
2022-09-13T14:37:55.949Z,0.10
2022-09-13T14:40:29.351Z,0.35
2022-09-13T14:42:56.838Z,0.20
2022-09-13T14:45:36.188Z,0.30
2022-09-13T14:48:14.359Z,0.30
2022-09-13T14:50:46.809Z,0.50
2022-09-13T14:53:17.152Z,0.17
2022-09-13T14:55:46.184Z,0.10
2022-09-13T14:58:19.811Z,0.00
2022-09-13T15:00:51.965Z,0.35
2022-09-13T15:03:19.485Z,0.00
2022-09-13T15:05:57.378Z,0.60
2022-09-13T15:08:27.783Z,0.10
2022-09-13T15:10:57.254Z,0.10
2022-09-13T15:13:25.016Z,0.63
2022-09-13T15:15:52.424Z,0.20
2022-09-13T15:18:20.756Z,0.20
2022-09-13T15:20:59.290Z,0.20
2022-09-13T15:23:33.797Z,0.20
2022-09-13T15:26:04.536Z,0.43
2022-09-13T15:28:35.779Z,0.00
2022-09-13T15:31:03.404Z,0.20
2022-09-13T15:33:32.431Z,0.20
2022-09-13T15:36:18.325Z,0.13
2022-09-13T15:39:01.086Z,0.03
2022-09-13T15:41:35.466Z,0.28
2022-09-13T15:44:03.673Z,0.20
2022-09-13T15:46:31.377Z,0.20
2022-09-13T15:49:03.010Z,0.10
2022-09-13T15:51:34.434Z,0.85
2022-09-13T15:54:06.691Z,0.10
2022-09-13T15:56:39.975Z,0.00
2022-09-13T15:59:07.129Z,0.15
2022-09-13T16:01:34.302Z,0.47
2022-09-13T16:04:04.095Z,0.52
2022-09-13T16:06:31.455Z,0.82
2022-09-13T16:09:00.401Z,0.30
2022-09-13T16:11:28.338Z,0.22
2022-09-13T16:13:55.589Z,0.20
2022-09-13T16:16:23.078Z,0.43
2022-09-13T16:18:50.568Z,0.10
2022-09-13T16:21:17.788Z,0.88
2022-09-13T16:23:45.371Z,0.73
2022-09-13T16:26:12.666Z,0.40
2022-09-13T16:28:39.836Z,0.15
2022-09-13T16:31:07.048Z,0.20
2022-09-13T16:33:34.853Z,0.05
2022-09-13T16:36:02.555Z,0.50
2022-09-13T16:38:30.761Z,0.15
2022-09-13T16:40:58.040Z,0.60
2022-09-13T16:43:25.378Z,0.43
2022-09-13T16:45:52.745Z,0.10
2022-09-13T16:48:19.875Z,0.10
2022-09-13T16:50:48.563Z,0.20
2022-09-13T16:53:15.867Z,0.20
2022-09-13T16:55:43.589Z,0.15
2022-09-13T16:58:10.769Z,0.30
2022-09-13T17:00:37.984Z,0.00
2022-09-13T17:03:05.427Z,0.00
2022-09-13T17:05:32.654Z,0.28
2022-09-13T17:07:59.969Z,0.17
2022-09-13T17:10:28.741Z,0.00
2022-09-13T17:12:55.891Z,0.20
2022-09-13T17:15:23.370Z,0.10
2022-09-13T17:17:50.649Z,0.25
2022-09-13T17:20:17.875Z,0.20
2022-09-13T17:22:45.240Z,0.30
2022-09-13T17:25:13.640Z,0.30
2022-09-13T17:27:40.792Z,0.10
2022-09-13T17:30:08.946Z,0.60
2022-09-13T17:32:36.232Z,0.30
2022-09-13T17:35:03.424Z,0.15
2022-09-13T17:37:31.268Z,0.10
2022-09-13T17:39:58.625Z,0.17
2022-09-13T17:42:26.034Z,0.22
2022-09-13T17:44:53.520Z,0.28
2022-09-13T17:47:20.666Z,1.38
2022-09-13T17:49:47.921Z,0.10
2022-09-13T17:52:15.127Z,0.13
2022-09-13T17:54:42.833Z,0.10
2022-09-13T17:57:12.027Z,0.10
2022-09-13T17:59:39.342Z,0.00
2022-09-13T18:02:06.709Z,0.22
2022-09-13T18:04:33.948Z,0.00
2022-09-13T18:07:01.138Z,0.32
2022-09-13T18:09:28.469Z,0.20
2022-09-13T18:11:55.897Z,0.00
2022-09-13T18:14:24.338Z,0.03
2022-09-13T18:16:55.691Z,0.00
2022-09-13T18:19:44.403Z,0.10
2022-09-13T18:22:11.679Z,0.15
2022-09-13T18:24:38.924Z,0.05
2022-09-13T18:27:06.175Z,0.20
2022-09-13T18:29:33.640Z,0.10
2022-09-13T18:32:01.166Z,0.38
2022-09-13T18:34:28.354Z,0.45
2022-09-13T18:36:55.833Z,0.15
2022-09-13T18:39:23.778Z,0.28
2022-09-13T18:41:50.971Z,0.15
2022-09-13T18:44:18.530Z,0.03
2022-09-13T18:46:47.497Z,0.30
2022-09-13T18:49:15.282Z,0.10
2022-09-13T18:51:43.803Z,0.32
2022-09-13T18:54:16.221Z,0.00
2022-09-13T18:56:46.862Z,0.05
2022-09-13T18:59:14.877Z,0.43
2022-09-13T19:01:43.917Z,0.20
2022-09-13T19:04:13.186Z,0.00
2022-09-13T19:06:45.885Z,0.40
2022-09-13T19:09:14.775Z,0.10
2022-09-13T19:11:48.114Z,0.30
2022-09-13T19:14:23.583Z,0.03
2022-09-13T19:16:51.688Z,0.03
2022-09-13T19:19:19.351Z,0.00
2022-09-13T19:21:47.235Z,0.20
2022-09-13T19:24:19.389Z,1.02
2022-09-13T19:26:48.676Z,0.08
2022-09-13T19:29:17.841Z,0.30
2022-09-13T19:31:48.141Z,0.13
2022-09-13T19:34:16.090Z,0.10
2022-09-13T19:36:46.649Z,0.10
2022-09-13T19:39:14.672Z,0.00
2022-09-13T19:41:42.131Z,0.00
2022-09-13T19:44:09.708Z,0.32
2022-09-13T19:46:38.265Z,0.25
2022-09-13T19:49:06.256Z,0.15
2022-09-13T19:51:34.740Z,0.10
2022-09-13T19:54:02.225Z,0.00
2022-09-13T19:56:31.065Z,0.10
2022-09-13T19:58:58.753Z,0.00
2022-09-13T20:01:27.837Z,0.10
2022-09-13T20:03:56.607Z,0.08
2022-09-13T20:06:25.022Z,0.00
2022-09-13T20:08:53.087Z,0.10
2022-09-13T20:11:21.022Z,0.47
2022-09-13T20:13:48.923Z,0.00
2022-09-13T20:16:17.615Z,0.52
2022-09-13T20:18:45.256Z,0.00
2022-09-13T20:21:12.547Z,0.30
2022-09-13T20:23:41.016Z,0.00
2022-09-13T20:26:19.356Z,0.00
2022-09-13T20:28:47.290Z,0.38
2022-09-13T20:31:15.505Z,0.85
2022-09-13T20:33:43.239Z,0.93
2022-09-13T20:36:11.949Z,0.10
2022-09-13T20:38:39.460Z,0.10
2022-09-13T20:41:08.397Z,0.08
2022-09-13T20:43:37.371Z,0.10
2022-09-13T20:46:05.595Z,0.43
2022-09-13T20:48:36.509Z,0.10
2022-09-13T20:51:12.285Z,0.03
2022-09-13T20:53:39.819Z,1.98
2022-09-13T20:56:08.348Z,0.05
2022-09-13T20:58:35.883Z,0.05
2022-09-13T21:01:04.428Z,0.17
2022-09-13T21:03:34.841Z,0.52
2022-09-13T21:06:02.009Z,0.30
2022-09-13T21:08:41.661Z,0.90
2022-09-13T21:11:16.479Z,0.20
2022-09-13T21:13:44.867Z,0.63
2022-09-13T21:16:13.547Z,0.40
2022-09-13T21:18:41.164Z,1.75
2022-09-13T21:21:09.526Z,1.92
2022-09-13T21:23:40.312Z,1.23
2022-09-13T21:26:10.159Z,1.27
2022-09-13T21:28:38.231Z,1.33
2022-09-13T21:31:06.952Z,2.13
2022-09-13T21:33:34.692Z,2.03
2022-09-13T21:36:03.363Z,2.63
2022-09-13T21:38:31.764Z,2.90
2022-09-13T21:41:00.741Z,3.38
2022-09-13T21:43:29.018Z,0.77
2022-09-13T21:46:06.710Z,3.50
2022-09-13T21:48:34.866Z,3.35
2022-09-13T21:51:06.130Z,4.63
2022-09-13T21:53:35.613Z,4.03
2022-09-13T21:56:04.142Z,3.50
2022-09-13T21:58:31.414Z,4.30
2022-09-13T22:01:04.059Z,2.75
2022-09-13T22:03:31.900Z,2.20
2022-09-13T22:05:59.055Z,1.55
2022-09-13T22:08:26.627Z,1.33
2022-09-13T22:10:53.914Z,0.85
2022-09-13T22:13:21.086Z,0.52
2022-09-13T22:15:48.292Z,2.83
2022-09-13T22:18:15.547Z,2.67
2022-09-13T22:20:43.964Z,2.67
2022-09-13T22:23:11.311Z,6.13
2022-09-13T22:25:41.094Z,8.00
2022-09-13T22:28:08.243Z,3.88
2022-09-13T22:30:36.245Z,2.90
2022-09-13T22:33:03.526Z,0.90
2022-09-13T22:35:30.667Z,3.05
2022-09-13T22:37:57.901Z,2.50
2022-09-13T22:40:25.105Z,2.75
2022-09-13T22:42:52.287Z,1.38
2022-09-13T22:45:19.573Z,1.83
2022-09-13T22:47:46.798Z,1.65
2022-09-13T22:50:13.978Z,1.63
2022-09-13T22:52:41.215Z,3.15
2022-09-13T22:55:08.624Z,1.08
2022-09-13T22:57:35.745Z,0.45
2022-09-13T23:00:03.196Z,0.73
2022-09-13T23:02:30.389Z,0.20
2022-09-13T23:04:57.498Z,1.38
2022-09-13T23:07:24.778Z,0.28
2022-09-13T23:09:52.002Z,0.30
2022-09-13T23:12:19.218Z,0.65
2022-09-13T23:14:46.538Z,0.22
2022-09-13T23:17:13.784Z,0.32
2022-09-13T23:19:41.077Z,0.28
2022-09-13T23:22:08.411Z,0.20
2022-09-13T23:24:36.094Z,0.50
2022-09-13T23:27:03.197Z,0.40
2022-09-13T23:29:31.240Z,1.00
2022-09-13T23:31:58.604Z,0.38
2022-09-13T23:34:25.868Z,0.20
2022-09-13T23:36:53.732Z,0.63
2022-09-13T23:39:21.734Z,0.40
2022-09-13T23:41:49.678Z,0.28
2022-09-13T23:44:17.408Z,0.60
2022-09-13T23:46:44.934Z,0.40
2022-09-13T23:49:12.178Z,0.30
2022-09-13T23:51:39.744Z,0.28
2022-09-13T23:54:06.979Z,0.60
2022-09-13T23:56:34.455Z,0.13
2022-09-13T23:59:02.424Z,0.10
